Terminal Aerodrome Forecast
Issued by NWS Twin Cities, MN

Home | Current Version | Previous Version | Graphics & Text | Print | Product List | Glossary On
Versions: 1 2 3 4 5 6 7 8 9 10 11 12 13 14 15 16 17 18
000
FTUS43 KMPX 192300 RRA
TAFEAU
TAF
KEAU 192339Z 2000/2024 VRB04KT P6SM SKC
     FM200600 31006KT P6SM SKC
     FM201200 32008KT P6SM SCT050 SCT250
     FM201500 33010KT P6SM BKN050
     FM202100 35007KT P6SM SCT050 SCT250=

USA.gov is the U.S. government's official web portal to all federal, state and local government web resources and services.